Harrah, Washington
Current Conditions -  °F | °C
As of 3:53 PM on Wednesday 28 Jan 2015 (Local Time) from KYKM Reporting Station
Haze Haze  
Wind Chill: 32°   Ceiling: 300
Heat Index: 37°   Visibility: 3mi
Dew Point: 34°   Wind: 6mph
Humidity: 89%   Direction: 100°E
Pressure: 30.41"   Gusts: NA
Location:  46.4°N, 120.54°W
Report Text: KYKM 282353Z 10005KT 3SM BR OVC003 03/01 A3041 RMK AO2 SFC VIS 5 SLP309 I6005 T00280011 10039 20000 53004
Loading
Personal Weather Stations






























Interactive Weather Map New forecast layout! Learn more

10-Day Weather Forecast

Advertisements
Track Severe Weather on mobile